sensor_id;sensor_type;location;lat;lon;timestamp;P1;durP1;ratioP1;P2;durP2;ratioP2
35959;SDS011;22043;50.970;7.192;2023-04-25T00:00:59;10.82;;;3.95;;
35959;SDS011;22043;50.970;7.192;2023-04-25T00:03:24;9.88;;;2.97;;
35959;SDS011;22043;50.970;7.192;2023-04-25T00:05:50;12.05;;;3.75;;
35959;SDS011;22043;50.970;7.192;2023-04-25T00:08:16;11.20;;;3.70;;
35959;SDS011;22043;50.970;7.192;2023-04-25T00:10:42;13.70;;;3.53;;
35959;SDS011;22043;50.970;7.192;2023-04-25T00:13:08;11.57;;;3.40;;
35959;SDS011;22043;50.970;7.192;2023-04-25T00:15:34;9.25;;;3.58;;
35959;SDS011;22043;50.970;7.192;2023-04-25T00:18:01;11.00;;;4.10;;
35959;SDS011;22043;50.970;7.192;2023-04-25T00:20:26;14.65;;;3.83;;
35959;SDS011;22043;50.970;7.192;2023-04-25T00:22:52;11.80;;;4.05;;
35959;SDS011;22043;50.970;7.192;2023-04-25T00:25:18;8.45;;;3.53;;
35959;SDS011;22043;50.970;7.192;2023-04-25T00:27:44;18.23;;;4.47;;
35959;SDS011;22043;50.970;7.192;2023-04-25T00:30:11;10.48;;;4.47;;
35959;SDS011;22043;50.970;7.192;2023-04-25T00:32:37;10.45;;;4.50;;
35959;SDS011;22043;50.970;7.192;2023-04-25T00:35:03;12.00;;;4.70;;
35959;SDS011;22043;50.970;7.192;2023-04-25T00:37:30;12.65;;;3.80;;
35959;SDS011;22043;50.970;7.192;2023-04-25T00:39:57;14.35;;;4.45;;
35959;SDS011;22043;50.970;7.192;2023-04-25T00:42:24;11.43;;;4.25;;
35959;SDS011;22043;50.970;7.192;2023-04-25T00:44:51;15.35;;;5.53;;
35959;SDS011;22043;50.970;7.192;2023-04-25T00:47:17;10.73;;;4.00;;
35959;SDS011;22043;50.970;7.192;2023-04-25T00:49:44;11.82;;;4.10;;
35959;SDS011;22043;50.970;7.192;2023-04-25T00:52:11;14.95;;;5.03;;
35959;SDS011;22043;50.970;7.192;2023-04-25T00:54:37;14.52;;;5.18;;
35959;SDS011;22043;50.970;7.192;2023-04-25T00:57:04;17.65;;;5.28;;
35959;SDS011;22043;50.970;7.192;2023-04-25T00:59:29;15.20;;;5.70;;
35959;SDS011;22043;50.970;7.192;2023-04-25T01:01:56;13.63;;;4.47;;
35959;SDS011;22043;50.970;7.192;2023-04-25T01:04:24;15.43;;;5.00;;
35959;SDS011;22043;50.970;7.192;2023-04-25T01:06:49;11.35;;;4.70;;
35959;SDS011;22043;50.970;7.192;2023-04-25T01:09:15;15.35;;;5.43;;
35959;SDS011;22043;50.970;7.192;2023-04-25T01:11:41;17.80;;;5.15;;
35959;SDS011;22043;50.970;7.192;2023-04-25T01:14:06;14.93;;;5.13;;
35959;SDS011;22043;50.970;7.192;2023-04-25T01:16:32;12.85;;;4.70;;
35959;SDS011;22043;50.970;7.192;2023-04-25T01:18:58;16.15;;;5.45;;
35959;SDS011;22043;50.970;7.192;2023-04-25T01:21:24;12.45;;;5.28;;
35959;SDS011;22043;50.970;7.192;2023-04-25T01:23:52;15.23;;;5.55;;
35959;SDS011;22043;50.970;7.192;2023-04-25T01:26:19;17.92;;;6.22;;
35959;SDS011;22043;50.970;7.192;2023-04-25T01:28:46;12.50;;;4.95;;
35959;SDS011;22043;50.970;7.192;2023-04-25T01:31:12;15.43;;;5.28;;
35959;SDS011;22043;50.970;7.192;2023-04-25T01:33:38;14.77;;;5.30;;
35959;SDS011;22043;50.970;7.192;2023-04-25T01:36:03;16.27;;;6.85;;
35959;SDS011;22043;50.970;7.192;2023-04-25T01:38:29;14.40;;;5.65;;
35959;SDS011;22043;50.970;7.192;2023-04-25T01:40:55;18.00;;;5.28;;
35959;SDS011;22043;50.970;7.192;2023-04-25T01:43:21;15.50;;;5.15;;
35959;SDS011;22043;50.970;7.192;2023-04-25T01:45:46;14.25;;;5.20;;
35959;SDS011;22043;50.970;7.192;2023-04-25T01:48:13;14.13;;;5.88;;
35959;SDS011;22043;50.970;7.192;2023-04-25T01:50:40;12.77;;;5.07;;
35959;SDS011;22043;50.970;7.192;2023-04-25T01:53:06;13.77;;;5.07;;
35959;SDS011;22043;50.970;7.192;2023-04-25T01:55:32;20.92;;;5.65;;
35959;SDS011;22043;50.970;7.192;2023-04-25T01:58:05;24.48;;;6.22;;
35959;SDS011;22043;50.970;7.192;2023-04-25T02:01:10;14.32;;;4.55;;
35959;SDS011;22043;50.970;7.192;2023-04-25T02:03:42;13.52;;;5.47;;
35959;SDS011;22043;50.970;7.192;2023-04-25T02:06:16;14.27;;;5.68;;
35959;SDS011;22043;50.970;7.192;2023-04-25T02:08:44;15.27;;;5.20;;
35959;SDS011;22043;50.970;7.192;2023-04-25T02:11:11;15.00;;;5.30;;
35959;SDS011;22043;50.970;7.192;2023-04-25T02:13:42;14.38;;;5.50;;
35959;SDS011;22043;50.970;7.192;2023-04-25T02:16:31;13.32;;;5.75;;
35959;SDS011;22043;50.970;7.192;2023-04-25T02:18:56;20.90;;;5.72;;
35959;SDS011;22043;50.970;7.192;2023-04-25T02:21:21;12.38;;;4.90;;
35959;SDS011;22043;50.970;7.192;2023-04-25T02:23:47;17.05;;;5.15;;
35959;SDS011;22043;50.970;7.192;2023-04-25T02:26:14;9.38;;;4.78;;
35959;SDS011;22043;50.970;7.192;2023-04-25T02:28:40;15.65;;;5.00;;
35959;SDS011;22043;50.970;7.192;2023-04-25T02:31:06;13.90;;;5.80;;
35959;SDS011;22043;50.970;7.192;2023-04-25T02:33:31;11.93;;;5.78;;
35959;SDS011;22043;50.970;7.192;2023-04-25T02:35:56;14.00;;;5.18;;
35959;SDS011;22043;50.970;7.192;2023-04-25T02:38:22;17.73;;;6.30;;
35959;SDS011;22043;50.970;7.192;2023-04-25T02:40:47;14.45;;;4.85;;
35959;SDS011;22043;50.970;7.192;2023-04-25T02:43:12;16.88;;;5.40;;
35959;SDS011;22043;50.970;7.192;2023-04-25T02:45:38;15.75;;;5.03;;
35959;SDS011;22043;50.970;7.192;2023-04-25T02:48:03;14.75;;;5.15;;
35959;SDS011;22043;50.970;7.192;2023-04-25T02:50:30;13.70;;;5.43;;
35959;SDS011;22043;50.970;7.192;2023-04-25T02:52:56;13.57;;;5.55;;
35959;SDS011;22043;50.970;7.192;2023-04-25T02:55:27;11.40;;;5.07;;
35959;SDS011;22043;50.970;7.192;2023-04-25T02:57:52;11.68;;;4.00;;
35959;SDS011;22043;50.970;7.192;2023-04-25T03:00:31;11.80;;;3.80;;
35959;SDS011;22043;50.970;7.192;2023-04-25T03:02:57;9.40;;;4.22;;
35959;SDS011;22043;50.970;7.192;2023-04-25T03:05:22;18.13;;;4.78;;
35959;SDS011;22043;50.970;7.192;2023-04-25T03:07:48;12.40;;;4.22;;
35959;SDS011;22043;50.970;7.192;2023-04-25T03:10:15;11.07;;;4.10;;
35959;SDS011;22043;50.970;7.192;2023-04-25T03:12:40;12.52;;;3.72;;
35959;SDS011;22043;50.970;7.192;2023-04-25T03:15:06;12.75;;;3.92;;
35959;SDS011;22043;50.970;7.192;2023-04-25T03:17:32;10.05;;;3.90;;
35959;SDS011;22043;50.970;7.192;2023-04-25T03:19:58;10.38;;;3.30;;
35959;SDS011;22043;50.970;7.192;2023-04-25T03:22:23;12.60;;;3.75;;
35959;SDS011;22043;50.970;7.192;2023-04-25T03:24:50;12.25;;;3.53;;
35959;SDS011;22043;50.970;7.192;2023-04-25T03:27:15;9.93;;;3.35;;
35959;SDS011;22043;50.970;7.192;2023-04-25T03:29:41;10.93;;;3.50;;
35959;SDS011;22043;50.970;7.192;2023-04-25T03:32:07;12.68;;;3.67;;
35959;SDS011;22043;50.970;7.192;2023-04-25T03:34:33;11.50;;;4.50;;
35959;SDS011;22043;50.970;7.192;2023-04-25T03:36:58;12.90;;;3.75;;
35959;SDS011;22043;50.970;7.192;2023-04-25T03:39:24;7.88;;;3.60;;
35959;SDS011;22043;50.970;7.192;2023-04-25T03:41:51;8.88;;;4.30;;
35959;SDS011;22043;50.970;7.192;2023-04-25T03:44:18;11.32;;;4.28;;
35959;SDS011;22043;50.970;7.192;2023-04-25T03:46:43;16.15;;;4.68;;
35959;SDS011;22043;50.970;7.192;2023-04-25T03:49:09;13.02;;;5.00;;
35959;SDS011;22043;50.970;7.192;2023-04-25T03:51:55;11.30;;;3.20;;
35959;SDS011;22043;50.970;7.192;2023-04-25T03:54:21;12.82;;;3.20;;
35959;SDS011;22043;50.970;7.192;2023-04-25T03:57:02;14.30;;;4.65;;
35959;SDS011;22043;50.970;7.192;2023-04-25T03:59:30;12.25;;;3.50;;
35959;SDS011;22043;50.970;7.192;2023-04-25T04:01:55;9.05;;;3.50;;
35959;SDS011;22043;50.970;7.192;2023-04-25T04:04:21;9.32;;;3.58;;
35959;SDS011;22043;50.970;7.192;2023-04-25T04:06:47;7.63;;;3.60;;
35959;SDS011;22043;50.970;7.192;2023-04-25T04:09:20;9.27;;;3.72;;
35959;SDS011;22043;50.970;7.192;2023-04-25T04:11:46;8.43;;;3.40;;
35959;SDS011;22043;50.970;7.192;2023-04-25T04:14:12;11.18;;;3.72;;
35959;SDS011;22043;50.970;7.192;2023-04-25T04:16:42;8.13;;;3.53;;
35959;SDS011;22043;50.970;7.192;2023-04-25T04:19:08;9.65;;;3.20;;
35959;SDS011;22043;50.970;7.192;2023-04-25T04:21:34;9.93;;;3.47;;
35959;SDS011;22043;50.970;7.192;2023-04-25T04:24:01;10.45;;;4.00;;
35959;SDS011;22043;50.970;7.192;2023-04-25T04:26:31;12.70;;;3.70;;
35959;SDS011;22043;50.970;7.192;2023-04-25T04:29:08;11.77;;;3.80;;
35959;SDS011;22043;50.970;7.192;2023-04-25T04:31:56;13.00;;;3.63;;
35959;SDS011;22043;50.970;7.192;2023-04-25T04:34:22;9.95;;;4.10;;
35959;SDS011;22043;50.970;7.192;2023-04-25T04:36:49;10.48;;;3.83;;
35959;SDS011;22043;50.970;7.192;2023-04-25T04:39:15;14.27;;;3.97;;
35959;SDS011;22043;50.970;7.192;2023-04-25T04:41:59;12.50;;;3.95;;
35959;SDS011;22043;50.970;7.192;2023-04-25T04:44:38;16.02;;;4.15;;
35959;SDS011;22043;50.970;7.192;2023-04-25T04:47:11;11.10;;;4.10;;
35959;SDS011;22043;50.970;7.192;2023-04-25T04:49:53;9.95;;;3.80;;
35959;SDS011;22043;50.970;7.192;2023-04-25T04:52:28;8.45;;;3.67;;
35959;SDS011;22043;50.970;7.192;2023-04-25T04:55:13;10.25;;;5.25;;
35959;SDS011;22043;50.970;7.192;2023-04-25T04:58:03;11.27;;;3.88;;
35959;SDS011;22043;50.970;7.192;2023-04-25T05:00:36;8.80;;;4.07;;
35959;SDS011;22043;50.970;7.192;2023-04-25T05:03:21;12.13;;;4.30;;
35959;SDS011;22043;50.970;7.192;2023-04-25T05:06:02;15.40;;;5.07;;
35959;SDS011;22043;50.970;7.192;2023-04-25T05:08:40;9.75;;;4.22;;
35959;SDS011;22043;50.970;7.192;2023-04-25T05:11:28;10.88;;;4.30;;
35959;SDS011;22043;50.970;7.192;2023-04-25T05:14:20;10.00;;;3.90;;
35959;SDS011;22043;50.970;7.192;2023-04-25T05:17:07;10.50;;;4.60;;
35959;SDS011;22043;50.970;7.192;2023-04-25T05:19:58;10.00;;;4.13;;
35959;SDS011;22043;50.970;7.192;2023-04-25T05:22:50;11.85;;;4.13;;
35959;SDS011;22043;50.970;7.192;2023-04-25T05:25:39;10.70;;;4.57;;
35959;SDS011;22043;50.970;7.192;2023-04-25T05:28:12;13.40;;;4.50;;
35959;SDS011;22043;50.970;7.192;2023-04-25T05:30:45;14.43;;;4.53;;
35959;SDS011;22043;50.970;7.192;2023-04-25T05:33:15;13.38;;;5.18;;
35959;SDS011;22043;50.970;7.192;2023-04-25T05:35:42;18.02;;;5.18;;
35959;SDS011;22043;50.970;7.192;2023-04-25T05:38:09;12.95;;;5.07;;
35959;SDS011;22043;50.970;7.192;2023-04-25T05:40:53;15.23;;;5.55;;
35959;SDS011;22043;50.970;7.192;2023-04-25T05:43:45;11.93;;;5.80;;
35959;SDS011;22043;50.970;7.192;2023-04-25T05:46:44;20.83;;;5.53;;
35959;SDS011;22043;50.970;7.192;2023-04-25T05:49:12;19.23;;;6.70;;
35959;SDS011;22043;50.970;7.192;2023-04-25T05:51:56;21.92;;;6.22;;
35959;SDS011;22043;50.970;7.192;2023-04-25T05:54:35;11.27;;;4.72;;
35959;SDS011;22043;50.970;7.192;2023-04-25T05:57:00;15.30;;;5.25;;
35959;SDS011;22043;50.970;7.192;2023-04-25T05:59:27;18.10;;;6.45;;
35959;SDS011;22043;50.970;7.192;2023-04-25T06:01:53;15.18;;;5.55;;
35959;SDS011;22043;50.970;7.192;2023-04-25T06:04:20;13.37;;;5.03;;
35959;SDS011;22043;50.970;7.192;2023-04-25T06:06:45;20.42;;;4.80;;
35959;SDS011;22043;50.970;7.192;2023-04-25T06:09:11;12.15;;;4.88;;
35959;SDS011;22043;50.970;7.192;2023-04-25T06:11:36;19.73;;;5.68;;
35959;SDS011;22043;50.970;7.192;2023-04-25T06:14:02;13.90;;;4.82;;
35959;SDS011;22043;50.970;7.192;2023-04-25T06:16:28;22.20;;;5.28;;
35959;SDS011;22043;50.970;7.192;2023-04-25T06:18:54;21.02;;;5.18;;
35959;SDS011;22043;50.970;7.192;2023-04-25T06:21:19;16.00;;;3.95;;
35959;SDS011;22043;50.970;7.192;2023-04-25T06:23:49;14.82;;;4.10;;
35959;SDS011;22043;50.970;7.192;2023-04-25T06:26:19;19.80;;;6.13;;
35959;SDS011;22043;50.970;7.192;2023-04-25T06:28:46;21.52;;;3.97;;
35959;SDS011;22043;50.970;7.192;2023-04-25T06:31:11;13.52;;;4.32;;
35959;SDS011;22043;50.970;7.192;2023-04-25T06:33:38;18.63;;;4.15;;
35959;SDS011;22043;50.970;7.192;2023-04-25T06:36:03;15.40;;;4.40;;
35959;SDS011;22043;50.970;7.192;2023-04-25T06:38:30;15.27;;;4.82;;
35959;SDS011;22043;50.970;7.192;2023-04-25T06:40:56;19.27;;;5.38;;
35959;SDS011;22043;50.970;7.192;2023-04-25T06:43:22;17.75;;;5.03;;
35959;SDS011;22043;50.970;7.192;2023-04-25T06:46:02;19.73;;;5.63;;
35959;SDS011;22043;50.970;7.192;2023-04-25T06:50:57;15.32;;;4.57;;
35959;SDS011;22043;50.970;7.192;2023-04-25T06:53:23;16.55;;;4.45;;
35959;SDS011;22043;50.970;7.192;2023-04-25T06:55:54;20.15;;;4.55;;
35959;SDS011;22043;50.970;7.192;2023-04-25T06:58:21;16.02;;;4.20;;
35959;SDS011;22043;50.970;7.192;2023-04-25T07:00:54;14.98;;;3.70;;
35959;SDS011;22043;50.970;7.192;2023-04-25T07:05:49;17.70;;;4.20;;
35959;SDS011;22043;50.970;7.192;2023-04-25T07:08:16;14.98;;;3.65;;
35959;SDS011;22043;50.970;7.192;2023-04-25T07:10:41;13.82;;;4.15;;
35959;SDS011;22043;50.970;7.192;2023-04-25T07:13:07;15.30;;;3.75;;
35959;SDS011;22043;50.970;7.192;2023-04-25T07:15:32;13.80;;;4.15;;
35959;SDS011;22043;50.970;7.192;2023-04-25T07:18:00;10.15;;;3.97;;
35959;SDS011;22043;50.970;7.192;2023-04-25T07:20:25;9.63;;;3.33;;
35959;SDS011;22043;50.970;7.192;2023-04-25T07:22:52;11.73;;;3.25;;
35959;SDS011;22043;50.970;7.192;2023-04-25T07:25:18;12.63;;;3.55;;
35959;SDS011;22043;50.970;7.192;2023-04-25T07:27:44;18.52;;;4.32;;
35959;SDS011;22043;50.970;7.192;2023-04-25T07:30:13;11.05;;;2.78;;
35959;SDS011;22043;50.970;7.192;2023-04-25T07:32:39;10.65;;;2.92;;
35959;SDS011;22043;50.970;7.192;2023-04-25T07:35:04;9.52;;;2.42;;
35959;SDS011;22043;50.970;7.192;2023-04-25T07:37:32;16.00;;;3.97;;
35959;SDS011;22043;50.970;7.192;2023-04-25T07:40:07;14.52;;;3.00;;
35959;SDS011;22043;50.970;7.192;2023-04-25T07:42:35;10.88;;;3.58;;
35959;SDS011;22043;50.970;7.192;2023-04-25T07:45:02;11.77;;;3.22;;
35959;SDS011;22043;50.970;7.192;2023-04-25T07:47:28;12.15;;;3.55;;
35959;SDS011;22043;50.970;7.192;2023-04-25T07:49:54;19.58;;;4.40;;
35959;SDS011;22043;50.970;7.192;2023-04-25T07:52:19;9.15;;;2.95;;
35959;SDS011;22043;50.970;7.192;2023-04-25T07:54:51;12.07;;;2.90;;
35959;SDS011;22043;50.970;7.192;2023-04-25T07:57:22;17.85;;;5.20;;
35959;SDS011;22043;50.970;7.192;2023-04-25T07:59:49;9.70;;;3.55;;
35959;SDS011;22043;50.970;7.192;2023-04-25T08:02:15;14.70;;;4.45;;
35959;SDS011;22043;50.970;7.192;2023-04-25T08:04:40;15.73;;;4.43;;
35959;SDS011;22043;50.970;7.192;2023-04-25T08:07:08;16.98;;;3.22;;
35959;SDS011;22043;50.970;7.192;2023-04-25T08:09:47;12.32;;;2.72;;
35959;SDS011;22043;50.970;7.192;2023-04-25T08:12:21;11.07;;;3.03;;
35959;SDS011;22043;50.970;7.192;2023-04-25T08:14:47;15.32;;;2.67;;
35959;SDS011;22043;50.970;7.192;2023-04-25T08:17:12;9.38;;;2.53;;
35959;SDS011;22043;50.970;7.192;2023-04-25T08:19:40;9.77;;;2.13;;
35959;SDS011;22043;50.970;7.192;2023-04-25T08:22:08;11.00;;;2.55;;
35959;SDS011;22043;50.970;7.192;2023-04-25T08:24:44;13.40;;;2.50;;
35959;SDS011;22043;50.970;7.192;2023-04-25T08:27:13;11.38;;;2.58;;
35959;SDS011;22043;50.970;7.192;2023-04-25T08:29:39;12.57;;;2.22;;
35959;SDS011;22043;50.970;7.192;2023-04-25T08:32:05;11.35;;;2.60;;
35959;SDS011;22043;50.970;7.192;2023-04-25T08:34:33;8.18;;;1.92;;
35959;SDS011;22043;50.970;7.192;2023-04-25T08:37:02;7.60;;;2.03;;
35959;SDS011;22043;50.970;7.192;2023-04-25T08:39:49;10.23;;;2.83;;
35959;SDS011;22043;50.970;7.192;2023-04-25T08:42:20;5.65;;;1.52;;
35959;SDS011;22043;50.970;7.192;2023-04-25T08:44:47;9.80;;;2.10;;
35959;SDS011;22043;50.970;7.192;2023-04-25T08:47:13;9.82;;;1.80;;
35959;SDS011;22043;50.970;7.192;2023-04-25T08:49:46;12.02;;;2.47;;
35959;SDS011;22043;50.970;7.192;2023-04-25T08:52:14;8.55;;;1.95;;
35959;SDS011;22043;50.970;7.192;2023-04-25T08:54:42;8.75;;;2.20;;
35959;SDS011;22043;50.970;7.192;2023-04-25T08:57:11;9.05;;;2.20;;
35959;SDS011;22043;50.970;7.192;2023-04-25T08:59:37;11.95;;;2.50;;
35959;SDS011;22043;50.970;7.192;2023-04-25T09:02:05;7.97;;;2.47;;
35959;SDS011;22043;50.970;7.192;2023-04-25T09:04:31;11.25;;;2.15;;
35959;SDS011;22043;50.970;7.192;2023-04-25T09:06:57;14.82;;;2.50;;
35959;SDS011;22043;50.970;7.192;2023-04-25T09:09:23;9.95;;;2.35;;
35959;SDS011;22043;50.970;7.192;2023-04-25T09:11:49;9.23;;;2.83;;
35959;SDS011;22043;50.970;7.192;2023-04-25T09:14:16;12.10;;;2.50;;
35959;SDS011;22043;50.970;7.192;2023-04-25T09:19:37;9.90;;;2.85;;
35959;SDS011;22043;50.970;7.192;2023-04-25T09:22:08;11.45;;;2.30;;
35959;SDS011;22043;50.970;7.192;2023-04-25T09:24:41;13.45;;;3.08;;
35959;SDS011;22043;50.970;7.192;2023-04-25T09:27:10;12.32;;;3.40;;
35959;SDS011;22043;50.970;7.192;2023-04-25T09:29:40;7.67;;;2.90;;
35959;SDS011;22043;50.970;7.192;2023-04-25T09:32:11;11.18;;;2.30;;
35959;SDS011;22043;50.970;7.192;2023-04-25T09:34:45;10.30;;;2.72;;
35959;SDS011;22043;50.970;7.192;2023-04-25T09:37:17;12.05;;;2.42;;
35959;SDS011;22043;50.970;7.192;2023-04-25T09:40:04;7.15;;;2.50;;
35959;SDS011;22043;50.970;7.192;2023-04-25T09:42:35;7.82;;;2.20;;
35959;SDS011;22043;50.970;7.192;2023-04-25T09:45:00;8.43;;;2.63;;
35959;SDS011;22043;50.970;7.192;2023-04-25T09:47:36;8.10;;;2.72;;
35959;SDS011;22043;50.970;7.192;2023-04-25T09:50:04;10.40;;;2.55;;
35959;SDS011;22043;50.970;7.192;2023-04-25T09:52:39;11.48;;;2.63;;
35959;SDS011;22043;50.970;7.192;2023-04-25T09:55:16;8.07;;;2.08;;
35959;SDS011;22043;50.970;7.192;2023-04-25T09:57:43;11.27;;;2.70;;
35959;SDS011;22043;50.970;7.192;2023-04-25T10:00:15;12.40;;;2.60;;
35959;SDS011;22043;50.970;7.192;2023-04-25T10:02:42;14.25;;;3.45;;
35959;SDS011;22043;50.970;7.192;2023-04-25T10:05:11;14.05;;;3.05;;
35959;SDS011;22043;50.970;7.192;2023-04-25T10:07:38;9.38;;;2.42;;
35959;SDS011;22043;50.970;7.192;2023-04-25T10:10:11;9.73;;;2.15;;
35959;SDS011;22043;50.970;7.192;2023-04-25T10:12:38;5.53;;;2.23;;
35959;SDS011;22043;50.970;7.192;2023-04-25T10:15:05;8.10;;;2.17;;
35959;SDS011;22043;50.970;7.192;2023-04-25T10:17:33;8.70;;;2.80;;
35959;SDS011;22043;50.970;7.192;2023-04-25T10:20:00;12.13;;;2.50;;
35959;SDS011;22043;50.970;7.192;2023-04-25T10:24:59;7.47;;;2.03;;
35959;SDS011;22043;50.970;7.192;2023-04-25T10:27:29;7.05;;;2.40;;
35959;SDS011;22043;50.970;7.192;2023-04-25T10:32:32;9.07;;;2.33;;
35959;SDS011;22043;50.970;7.192;2023-04-25T10:35:04;13.77;;;2.47;;
35959;SDS011;22043;50.970;7.192;2023-04-25T10:37:36;6.15;;;1.65;;
35959;SDS011;22043;50.970;7.192;2023-04-25T10:40:07;8.57;;;1.67;;
35959;SDS011;22043;50.970;7.192;2023-04-25T10:42:34;7.43;;;1.60;;
35959;SDS011;22043;50.970;7.192;2023-04-25T10:45:00;8.10;;;1.95;;
35959;SDS011;22043;50.970;7.192;2023-04-25T10:47:34;6.05;;;1.88;;
35959;SDS011;22043;50.970;7.192;2023-04-25T10:50:05;5.20;;;2.28;;
35959;SDS011;22043;50.970;7.192;2023-04-25T10:52:32;9.13;;;2.15;;
35959;SDS011;22043;50.970;7.192;2023-04-25T10:54:58;6.30;;;1.73;;
35959;SDS011;22043;50.970;7.192;2023-04-25T10:57:36;7.57;;;2.00;;
35959;SDS011;22043;50.970;7.192;2023-04-25T11:02:37;6.50;;;2.33;;
35959;SDS011;22043;50.970;7.192;2023-04-25T11:05:03;9.55;;;2.35;;
35959;SDS011;22043;50.970;7.192;2023-04-25T11:07:33;7.70;;;2.15;;
35959;SDS011;22043;50.970;7.192;2023-04-25T11:10:02;6.78;;;1.88;;
35959;SDS011;22043;50.970;7.192;2023-04-25T11:12:29;7.97;;;2.15;;
35959;SDS011;22043;50.970;7.192;2023-04-25T11:14:59;8.20;;;1.95;;
35959;SDS011;22043;50.970;7.192;2023-04-25T11:17:28;5.88;;;1.45;;
35959;SDS011;22043;50.970;7.192;2023-04-25T11:19:54;4.57;;;1.60;;
35959;SDS011;22043;50.970;7.192;2023-04-25T11:22:21;6.45;;;1.60;;
35959;SDS011;22043;50.970;7.192;2023-04-25T11:24:47;4.18;;;1.73;;
35959;SDS011;22043;50.970;7.192;2023-04-25T11:27:12;4.43;;;1.75;;
35959;SDS011;22043;50.970;7.192;2023-04-25T11:29:38;7.53;;;1.45;;
35959;SDS011;22043;50.970;7.192;2023-04-25T11:32:03;6.63;;;1.58;;
35959;SDS011;22043;50.970;7.192;2023-04-25T11:34:30;5.72;;;1.42;;
35959;SDS011;22043;50.970;7.192;2023-04-25T11:36:56;44.17;;;3.22;;
35959;SDS011;22043;50.970;7.192;2023-04-25T11:39:23;6.60;;;1.50;;
35959;SDS011;22043;50.970;7.192;2023-04-25T11:41:49;10.15;;;1.67;;
35959;SDS011;22043;50.970;7.192;2023-04-25T11:44:15;7.55;;;1.63;;
35959;SDS011;22043;50.970;7.192;2023-04-25T11:46:42;6.03;;;1.75;;
35959;SDS011;22043;50.970;7.192;2023-04-25T11:49:08;6.38;;;1.63;;
35959;SDS011;22043;50.970;7.192;2023-04-25T11:54:10;4.70;;;1.40;;
35959;SDS011;22043;50.970;7.192;2023-04-25T11:56:36;6.95;;;1.55;;
35959;SDS011;22043;50.970;7.192;2023-04-25T11:59:03;3.50;;;1.40;;
35959;SDS011;22043;50.970;7.192;2023-04-25T12:01:33;7.60;;;1.73;;
35959;SDS011;22043;50.970;7.192;2023-04-25T12:04:16;4.20;;;1.40;;
35959;SDS011;22043;50.970;7.192;2023-04-25T12:06:43;5.57;;;1.20;;
35959;SDS011;22043;50.970;7.192;2023-04-25T12:09:12;7.45;;;1.10;;
35959;SDS011;22043;50.970;7.192;2023-04-25T12:11:41;5.57;;;0.95;;
35959;SDS011;22043;50.970;7.192;2023-04-25T12:14:08;4.78;;;1.30;;
35959;SDS011;22043;50.970;7.192;2023-04-25T12:16:44;6.90;;;1.67;;
35959;SDS011;22043;50.970;7.192;2023-04-25T12:19:14;6.40;;;1.30;;
35959;SDS011;22043;50.970;7.192;2023-04-25T12:21:41;6.32;;;1.42;;
35959;SDS011;22043;50.970;7.192;2023-04-25T12:24:25;7.55;;;1.08;;
35959;SDS011;22043;50.970;7.192;2023-04-25T12:29:19;4.65;;;0.82;;
35959;SDS011;22043;50.970;7.192;2023-04-25T12:31:47;2.70;;;0.70;;
35959;SDS011;22043;50.970;7.192;2023-04-25T12:34:14;4.55;;;1.15;;
35959;SDS011;22043;50.970;7.192;2023-04-25T12:36:40;6.57;;;1.10;;
35959;SDS011;22043;50.970;7.192;2023-04-25T12:39:05;13.35;;;1.42;;
35959;SDS011;22043;50.970;7.192;2023-04-25T12:41:32;8.60;;;1.30;;
35959;SDS011;22043;50.970;7.192;2023-04-25T12:43:57;3.25;;;0.88;;
35959;SDS011;22043;50.970;7.192;2023-04-25T12:46:23;4.10;;;1.52;;
35959;SDS011;22043;50.970;7.192;2023-04-25T12:48:48;4.88;;;1.27;;
35959;SDS011;22043;50.970;7.192;2023-04-25T12:51:14;5.30;;;1.52;;
35959;SDS011;22043;50.970;7.192;2023-04-25T12:53:40;5.18;;;1.40;;
35959;SDS011;22043;50.970;7.192;2023-04-25T12:56:09;3.80;;;1.20;;
35959;SDS011;22043;50.970;7.192;2023-04-25T12:58:35;3.13;;;1.10;;
35959;SDS011;22043;50.970;7.192;2023-04-25T13:01:01;6.28;;;1.40;;
35959;SDS011;22043;50.970;7.192;2023-04-25T13:03:27;3.38;;;1.20;;
35959;SDS011;22043;50.970;7.192;2023-04-25T13:05:52;5.70;;;1.10;;
35959;SDS011;22043;50.970;7.192;2023-04-25T13:08:18;8.27;;;1.40;;
35959;SDS011;22043;50.970;7.192;2023-04-25T13:10:44;4.15;;;1.40;;
35959;SDS011;22043;50.970;7.192;2023-04-25T13:13:09;4.55;;;1.05;;
35959;SDS011;22043;50.970;7.192;2023-04-25T13:15:35;6.20;;;1.92;;
35959;SDS011;22043;50.970;7.192;2023-04-25T13:18:02;4.10;;;1.48;;
35959;SDS011;22043;50.970;7.192;2023-04-25T13:20:29;5.03;;;0.93;;
35959;SDS011;22043;50.970;7.192;2023-04-25T13:22:54;7.97;;;2.38;;
35959;SDS011;22043;50.970;7.192;2023-04-25T13:25:20;6.43;;;1.50;;
35959;SDS011;22043;50.970;7.192;2023-04-25T13:27:46;8.32;;;2.25;;
35959;SDS011;22043;50.970;7.192;2023-04-25T13:30:12;8.63;;;1.63;;
35959;SDS011;22043;50.970;7.192;2023-04-25T13:32:38;10.02;;;3.00;;
35959;SDS011;22043;50.970;7.192;2023-04-25T13:35:04;4.40;;;1.40;;
35959;SDS011;22043;50.970;7.192;2023-04-25T13:37:31;5.28;;;1.70;;
35959;SDS011;22043;50.970;7.192;2023-04-25T13:40:04;6.15;;;1.83;;
35959;SDS011;22043;50.970;7.192;2023-04-25T13:42:33;5.10;;;1.80;;
35959;SDS011;22043;50.970;7.192;2023-04-25T13:44:59;4.57;;;1.48;;
35959;SDS011;22043;50.970;7.192;2023-04-25T13:47:26;9.10;;;2.40;;
35959;SDS011;22043;50.970;7.192;2023-04-25T13:49:52;10.35;;;2.92;;
35959;SDS011;22043;50.970;7.192;2023-04-25T13:52:18;4.72;;;1.77;;
35959;SDS011;22043;50.970;7.192;2023-04-25T13:54:43;3.13;;;1.27;;
35959;SDS011;22043;50.970;7.192;2023-04-25T13:57:09;5.00;;;1.35;;
35959;SDS011;22043;50.970;7.192;2023-04-25T13:59:36;2.88;;;1.17;;
35959;SDS011;22043;50.970;7.192;2023-04-25T14:02:01;5.15;;;1.25;;
35959;SDS011;22043;50.970;7.192;2023-04-25T14:04:27;5.28;;;1.67;;
35959;SDS011;22043;50.970;7.192;2023-04-25T14:06:52;3.95;;;1.20;;
35959;SDS011;22043;50.970;7.192;2023-04-25T14:09:18;3.08;;;1.38;;
35959;SDS011;22043;50.970;7.192;2023-04-25T14:11:46;5.22;;;1.75;;
35959;SDS011;22043;50.970;7.192;2023-04-25T14:14:11;6.38;;;2.20;;
35959;SDS011;22043;50.970;7.192;2023-04-25T14:16:38;4.80;;;1.55;;
35959;SDS011;22043;50.970;7.192;2023-04-25T14:19:03;4.03;;;1.40;;
35959;SDS011;22043;50.970;7.192;2023-04-25T14:21:28;5.78;;;1.42;;
35959;SDS011;22043;50.970;7.192;2023-04-25T14:23:56;5.78;;;1.60;;
35959;SDS011;22043;50.970;7.192;2023-04-25T14:26:22;4.47;;;2.05;;
35959;SDS011;22043;50.970;7.192;2023-04-25T14:28:47;4.32;;;1.90;;
35959;SDS011;22043;50.970;7.192;2023-04-25T14:31:12;5.40;;;1.83;;
35959;SDS011;22043;50.970;7.192;2023-04-25T14:33:38;9.13;;;2.55;;
35959;SDS011;22043;50.970;7.192;2023-04-25T14:36:08;6.63;;;1.73;;
35959;SDS011;22043;50.970;7.192;2023-04-25T14:41:57;6.22;;;2.17;;
35959;SDS011;22043;50.970;7.192;2023-04-25T14:44:23;9.43;;;1.77;;
35959;SDS011;22043;50.970;7.192;2023-04-25T14:46:49;5.93;;;1.60;;
35959;SDS011;22043;50.970;7.192;2023-04-25T14:49:17;8.80;;;1.60;;
35959;SDS011;22043;50.970;7.192;2023-04-25T14:51:44;4.93;;;1.60;;
35959;SDS011;22043;50.970;7.192;2023-04-25T14:54:10;7.45;;;1.20;;
35959;SDS011;22043;50.970;7.192;2023-04-25T14:56:43;4.35;;;1.10;;
35959;SDS011;22043;50.970;7.192;2023-04-25T14:59:49;4.88;;;1.02;;
35959;SDS011;22043;50.970;7.192;2023-04-25T15:02:15;4.43;;;1.08;;
35959;SDS011;22043;50.970;7.192;2023-04-25T15:04:41;3.30;;;1.10;;
35959;SDS011;22043;50.970;7.192;2023-04-25T15:07:07;5.07;;;1.10;;
35959;SDS011;22043;50.970;7.192;2023-04-25T15:09:43;9.00;;;1.50;;
35959;SDS011;22043;50.970;7.192;2023-04-25T15:12:14;5.72;;;1.30;;
35959;SDS011;22043;50.970;7.192;2023-04-25T15:14:40;4.70;;;1.30;;